Time;durP1;ratioP1;P1;durP2;ratioP2;P2;SDS_P1;SDS_P2;PMS_P1;PMS_P2;Temp;Humidity;BMP_temperature;BMP_pressure;BME280_temperature;BME280_humidity;BME280_pressure;Samples;Min_cycle;Max_cycle;Signal;HPM_P1;HPM_P2
2023/12/15 00:02:22;;;;;;;11.67;5.60;;;;;;;3.54;89.12;100363.77;125460;1099;102042;-80
2023/12/15 00:04:53;;;;;;;11.97;5.50;;;;;;;3.54;89.08;100368.96;125414;1098;102228;-78
2023/12/15 00:07:25;;;;;;;15.57;6.60;;;;;;;3.53;89.31;100359.37;125302;1099;104341;-77
2023/12/15 00:09:56;;;;;;;12.30;5.73;;;;;;;3.54;88.92;100376.75;125316;1099;101949;-80
2023/12/15 00:12:28;;;;;;;12.37;5.60;;;;;;;3.54;88.29;100381.05;124813;1099;102187;-78
2023/12/15 00:14:59;;;;;;;12.47;5.67;;;;;;;3.51;88.94;100389.53;125435;1099;101859;-79
2023/12/15 00:22:00;;;;;;;15.37;6.63;;;;;;;3.48;88.64;100423.06;116122;1102;10001502;-77
2023/12/15 00:24:31;;;;;;;12.33;6.07;;;;;;;3.47;89.02;100415.19;124632;1102;101993;-79
2023/12/15 00:27:03;;;;;;;14.33;6.60;;;;;;;3.45;89.63;100417.69;124729;1102;102190;-78
2023/12/15 00:29:34;;;;;;;13.33;6.20;;;;;;;3.44;88.43;100426.25;124656;1103;102503;-79
2023/12/15 00:32:07;;;;;;;14.40;6.10;;;;;;;3.46;88.75;100432.46;124635;1104;102034;-79
2023/12/15 00:34:38;;;;;;;16.95;6.75;;;;;;;3.50;89.11;100444.80;124568;1105;104249;-79
2023/12/15 00:37:10;;;;;;;14.23;6.93;;;;;;;3.52;88.67;100444.89;124631;1105;101919;-79
2023/12/15 00:39:41;;;;;;;14.27;6.90;;;;;;;3.53;88.44;100452.78;124657;1105;104185;-78
2023/12/15 00:42:13;;;;;;;14.00;6.03;;;;;;;3.52;88.89;100444.89;124625;1102;102003;-79
2023/12/15 00:44:45;;;;;;;15.30;6.93;;;;;;;3.50;88.62;100443.91;124686;1105;104191;-78
2023/12/15 00:47:16;;;;;;;12.87;5.83;;;;;;;3.47;88.68;100452.39;124581;1102;104172;-79
2023/12/15 00:49:47;;;;;;;13.17;6.07;;;;;;;3.46;88.76;100453.22;124626;1102;104629;-78
2023/12/15 00:52:19;;;;;;;14.80;6.70;;;;;;;3.46;88.75;100457.48;124576;1103;102016;-79
2023/12/15 00:54:50;;;;;;;14.47;6.57;;;;;;;3.46;88.20;100452.30;124632;1105;104224;-78
2023/12/15 00:57:22;;;;;;;12.97;5.70;;;;;;;3.45;88.20;100448.81;124656;1102;104172;-78
2023/12/15 00:59:53;;;;;;;13.23;6.13;;;;;;;3.45;88.25;100427.17;124651;1102;104666;-78
2023/12/15 01:02:25;;;;;;;14.27;5.97;;;;;;;3.45;88.58;100448.81;124587;1105;104249;-77
2023/12/15 01:04:56;;;;;;;11.90;5.97;;;;;;;3.46;88.39;100436.73;124631;1102;102211;-78
2023/12/15 01:07:30;;;;;;;13.37;6.00;;;;;;;3.46;87.41;100454.89;124571;1102;104287;-79
2023/12/15 01:10:02;;;;;;;13.17;6.20;;;;;;;3.46;87.49;100453.22;124581;1105;102011;-78
2023/12/15 01:12:33;;;;;;;11.40;5.80;;;;;;;3.47;88.97;100451.50;124700;1102;101871;-78
2023/12/15 01:15:06;;;;;;;15.67;6.70;;;;;;;3.46;88.51;100436.73;124637;1102;103205;-79
2023/12/15 01:17:38;;;;;;;13.53;6.40;;;;;;;3.44;87.57;100441.81;124559;1105;104211;-78
2023/12/15 01:20:13;;;;;;;12.83;6.60;;;;;;;3.44;87.50;100446.13;124712;1105;104181;-78
2023/12/15 01:22:45;;;;;;;13.90;6.37;;;;;;;3.40;88.36;100456.30;124598;1103;104204;-78
2023/12/15 01:25:16;;;;;;;14.57;6.87;;;;;;;3.39;87.84;100456.20;124685;1102;104546;-77
2023/12/15 01:27:48;;;;;;;12.83;6.30;;;;;;;3.38;88.21;100463.09;124696;1102;104390;-78
2023/12/15 01:30:19;;;;;;;16.23;6.70;;;;;;;3.39;87.77;100469.17;124578;1102;102643;-78
2023/12/15 01:32:51;;;;;;;12.67;5.93;;;;;;;3.36;87.34;100451.70;124559;1105;104194;-78
2023/12/15 01:35:22;;;;;;;13.83;6.43;;;;;;;3.36;87.77;100462.08;124666;1102;104239;-79
2023/12/15 01:37:54;;;;;;;15.67;6.97;;;;;;;3.36;88.29;100475.05;124670;1103;104258;-78
2023/12/15 01:40:25;;;;;;;17.37;7.40;;;;;;;3.38;88.02;100480.34;124743;1102;104210;-78
2023/12/15 01:43:01;;;;;;;15.30;7.17;;;;;;;3.36;87.79;100480.23;124618;1102;104201;-79
2023/12/15 01:45:32;;;;;;;15.93;7.17;;;;;;;3.34;87.83;100479.25;124559;1102;102269;-78
2023/12/15 01:48:05;;;;;;;16.73;7.60;;;;;;;3.34;87.91;100478.37;124639;1102;104271;-79
2023/12/15 01:50:36;;;;;;;15.20;7.07;;;;;;;3.34;87.97;100484.44;124648;1102;102015;-78
2023/12/15 01:53:08;;;;;;;17.03;7.13;;;;;;;3.37;88.35;100488.94;124704;1105;101958;-78
2023/12/15 01:55:39;;;;;;;16.97;7.87;;;;;;;3.36;88.50;100489.73;124700;1105;104281;-79
2023/12/15 01:58:13;;;;;;;14.77;6.77;;;;;;;3.39;88.09;100497.70;124595;1105;104262;-78
2023/12/15 02:00:47;;;;;;;15.98;6.97;;;;;;;3.38;87.87;100503.69;124684;1104;104204;-79
2023/12/15 02:03:18;;;;;;;14.80;7.00;;;;;;;3.36;88.09;100526.93;124594;1102;104258;-79
2023/12/15 02:05:52;;;;;;;13.93;6.57;;;;;;;3.34;87.54;100520.75;124604;1102;102441;-78
2023/12/15 02:08:23;;;;;;;12.07;5.90;;;;;;;3.30;86.62;100521.34;124618;1102;101903;-78
2023/12/15 02:10:55;;;;;;;12.87;5.57;;;;;;;3.28;85.90;100532.44;124703;1102;102360;-78
2023/12/15 02:13:26;;;;;;;14.57;6.20;;;;;;;3.28;87.05;100548.00;124679;1105;101880;-78
2023/12/15 02:15:58;;;;;;;10.73;5.80;;;;;;;3.26;87.05;100534.01;124689;1102;102233;-79
2023/12/15 02:18:29;;;;;;;11.93;5.77;;;;;;;3.23;86.14;100548.58;124687;1102;102324;-79
2023/12/15 02:21:01;;;;;;;11.33;5.53;;;;;;;3.20;85.67;100557.86;124680;1105;101913;-78
2023/12/15 02:23:32;;;;;;;14.33;6.13;;;;;;;3.18;86.78;100543.88;124617;1104;104198;-79
2023/12/15 02:26:05;;;;;;;11.63;6.03;;;;;;;3.16;85.60;100548.08;124671;1105;104201;-79
2023/12/15 02:28:36;;;;;;;11.07;5.90;;;;;;;3.14;85.49;100554.86;124630;1105;102025;-78
2023/12/15 02:31:08;;;;;;;13.17;6.23;;;;;;;3.13;85.97;100553.06;124596;1106;104258;-80
2023/12/15 02:33:40;;;;;;;10.90;5.43;;;;;;;3.10;85.52;100548.59;124660;1105;104290;-79
2023/12/15 02:36:18;;;;;;;10.53;5.77;;;;;;;3.09;85.94;100528.63;124646;1104;101851;-80
2023/12/15 02:38:50;;;;;;;13.63;6.30;;;;;;;3.07;86.13;100548.39;124678;1105;101930;-79
2023/12/15 02:41:21;;;;;;;10.67;5.57;;;;;;;3.06;85.78;100546.58;124643;1105;104256;-79
2023/12/15 02:43:53;;;;;;;11.10;5.53;;;;;;;3.05;85.92;100547.36;124665;1105;104273;-77
2023/12/15 02:46:25;;;;;;;9.40;5.47;;;;;;;3.04;85.81;100569.81;124685;1105;104479;-77
2023/12/15 02:48:56;;;;;;;11.53;4.90;;;;;;;3.03;85.69;100564.52;124694;1103;104223;-77
2023/12/15 02:51:31;;;;;;;9.60;5.17;;;;;;;3.03;86.07;100567.11;124705;1102;104338;-77
2023/12/15 02:54:04;;;;;;;9.90;5.30;;;;;;;3.03;85.75;100577.48;124733;1102;104178;-76
2023/12/15 02:56:35;;;;;;;11.83;4.97;;;;;;;3.01;85.51;100568.72;124759;1105;101894;-77
2023/12/15 02:59:07;;;;;;;10.17;5.17;;;;;;;3.02;85.95;100580.86;124633;1105;101906;-77
2023/12/15 03:01:38;;;;;;;10.10;5.00;;;;;;;3.00;85.90;100579.87;124736;1105;104258;-77
2023/12/15 03:04:10;;;;;;;11.53;5.50;;;;;;;2.99;85.03;100607.50;124700;1105;104230;-77
2023/12/15 03:06:41;;;;;;;10.10;4.73;;;;;;;2.96;84.50;100609.88;124538;1105;102424;-78
2023/12/15 03:09:13;;;;;;;13.03;5.97;;;;;;;2.94;85.12;100607.97;124696;1102;104188;-76
2023/12/15 03:11:44;;;;;;;11.10;5.70;;;;;;;2.92;86.07;100597.50;124653;1102;101912;-77
2023/12/15 03:14:16;;;;;;;10.27;5.53;;;;;;;2.94;85.70;100592.42;124689;1102;104242;-77
2023/12/15 03:16:48;;;;;;;11.93;6.37;;;;;;;2.94;85.89;100595.90;124729;1105;102041;-77
2023/12/15 03:19:20;;;;;;;12.47;5.80;;;;;;;2.94;85.78;100614.05;124675;1105;104255;-78
2023/12/15 03:21:51;;;;;;;13.77;6.30;;;;;;;2.94;86.53;100613.16;124657;1105;104249;-77
2023/12/15 03:24:23;;;;;;;13.73;6.33;;;;;;;2.95;85.42;100627.92;124744;1102;104211;-77
2023/12/15 03:26:54;;;;;;;15.53;6.67;;;;;;;2.96;85.74;100625.44;124658;1102;102343;-77
2023/12/15 03:29:25;;;;;;;14.57;6.87;;;;;;;2.95;86.47;100633.11;124699;1105;104255;-77
2023/12/15 03:31:57;;;;;;;13.47;6.20;;;;;;;2.95;85.71;100631.41;124679;1102;101989;-76
2023/12/15 03:34:29;;;;;;;14.23;6.60;;;;;;;2.94;86.24;100634.78;124759;1102;101909;-77
2023/12/15 03:37:00;;;;;;;15.60;6.60;;;;;;;2.95;85.90;100639.18;124824;1102;104191;-77
2023/12/15 03:39:31;;;;;;;14.50;6.20;;;;;;;2.96;86.40;100653.95;124610;1105;104504;-76
2023/12/15 03:43:14;;;;;;;14.93;6.67;;;;;;;2.98;86.66;100667.02;125014;1102;102406;-76
2023/12/15 03:45:46;;;;;;;12.83;6.53;;;;;;;2.98;86.09;100675.69;124791;1102;104262;-78
2023/12/15 03:48:17;;;;;;;12.77;6.03;;;;;;;2.99;86.11;100687.86;124676;1105;104326;-79
2023/12/15 03:50:49;;;;;;;10.27;5.17;;;;;;;2.98;86.16;100692.94;124626;1102;104326;-78
2023/12/15 03:53:20;;;;;;;11.43;4.60;;;;;;;2.95;85.20;100696.21;124711;1102;104239;-79
2023/12/15 03:55:52;;;;;;;9.17;4.10;;;;;;;2.94;85.47;100698.70;124641;1102;104176;-79
2023/12/15 03:58:23;;;;;;;9.90;4.50;;;;;;;2.93;85.38;100691.70;124710;1102;104254;-79
2023/12/15 04:00:55;;;;;;;8.75;4.10;;;;;;;2.91;85.23;100693.30;125494;1099;104162;-79
2023/12/15 04:03:26;;;;;;;9.17;4.50;;;;;;;2.90;85.77;100683.71;125584;1099;101931;-78
2023/12/15 04:05:58;;;;;;;11.00;5.73;;;;;;;2.90;85.08;100686.30;125491;1099;104220;-80
2023/12/15 04:08:29;;;;;;;7.87;4.50;;;;;;;2.90;85.70;100678.53;124978;1099;104184;-80
2023/12/15 04:11:01;;;;;;;10.07;4.40;;;;;;;2.88;85.12;100681.02;125296;1099;101897;-80
2023/12/15 04:13:32;;;;;;;7.47;4.13;;;;;;;2.88;85.56;100681.02;125552;1098;102038;-80
2023/12/15 04:16:06;;;;;;;8.50;4.30;;;;;;;2.90;85.78;100696.67;125326;1099;102121;-79
2023/12/15 04:18:38;;;;;;;8.23;4.33;;;;;;;2.90;85.75;100713.15;125571;1099;102076;-80
2023/12/15 04:21:10;;;;;;;9.20;4.53;;;;;;;2.92;85.35;100716.73;125501;1099;104063;-80
2023/12/15 04:23:41;;;;;;;8.87;4.33;;;;;;;2.93;85.33;100712.44;124942;1099;102504;-78
2023/12/15 04:26:13;;;;;;;9.27;4.47;;;;;;;2.92;85.37;100714.14;125528;1099;104223;-79
2023/12/15 04:28:44;;;;;;;10.47;4.87;;;;;;;2.91;85.87;100727.00;125385;1099;104296;-79
2023/12/15 04:31:16;;;;;;;9.43;4.60;;;;;;;2.92;85.92;100715.84;125537;1099;104216;-80
2023/12/15 04:33:48;;;;;;;10.53;4.67;;;;;;;2.91;85.35;100722.70;125636;1099;101893;-79
2023/12/15 04:36:22;;;;;;;8.65;4.25;;;;;;;2.90;85.03;100731.30;125499;1099;101880;-79
2023/12/15 04:38:54;;;;;;;9.00;4.37;;;;;;;2.88;85.50;100725.08;125063;1099;102022;-80
2023/12/15 04:41:26;;;;;;;9.40;4.30;;;;;;;2.87;84.53;100726.78;125469;1098;102183;-78
2023/12/15 04:43:58;;;;;;;9.87;4.73;;;;;;;2.87;85.02;100741.45;125495;1099;102064;-79
2023/12/15 04:46:31;;;;;;;10.30;4.20;;;;;;;2.88;85.48;100741.55;125627;1098;102246;-79
2023/12/15 04:49:03;;;;;;;8.15;4.50;;;;;;;2.90;85.54;100740.73;124922;1099;104284;-79
2023/12/15 04:51:34;;;;;;;9.63;4.43;;;;;;;2.89;85.17;100750.22;125516;1099;104211;-79
2023/12/15 04:54:05;;;;;;;9.53;4.90;;;;;;;2.90;85.39;100743.33;125013;1099;101960;-79
2023/12/15 04:56:37;;;;;;;7.63;4.53;;;;;;;2.87;85.61;100739.74;124969;1099;102035;-80
2023/12/15 04:59:08;;;;;;;8.83;4.27;;;;;;;2.87;85.19;100744.03;124959;1099;104188;-79
2023/12/15 05:01:41;;;;;;;11.17;4.43;;;;;;;2.86;85.09;100750.89;124851;1099;102064;-79
2023/12/15 05:04:12;;;;;;;11.30;5.40;;;;;;;2.85;84.70;100759.48;125479;1098;104639;-81
2023/12/15 05:06:43;;;;;;;12.37;6.53;;;;;;;2.86;84.91;100774.22;125032;1098;104453;-79
2023/12/15 05:09:15;;;;;;;11.60;5.30;;;;;;;2.88;85.17;100806.35;125428;1099;101819;-79
2023/12/15 05:11:46;;;;;;;10.87;5.43;;;;;;;2.87;84.58;100791.58;124904;1099;101941;-79
2023/12/15 05:14:18;;;;;;;10.50;5.20;;;;;;;2.86;84.82;100794.06;125450;1099;105668;-80
2023/12/15 05:16:49;;;;;;;10.83;4.70;;;;;;;2.86;84.91;100802.73;125442;1099;102185;-79
2023/12/15 05:19:21;;;;;;;10.43;5.00;;;;;;;2.87;85.41;100796.77;125442;1099;102039;-79
2023/12/15 05:21:52;;;;;;;11.10;4.90;;;;;;;2.88;85.70;100795.98;125502;1099;104345;-81
2023/12/15 05:24:24;;;;;;;13.43;4.70;;;;;;;2.88;86.06;100795.98;125526;1099;104224;-80
2023/12/15 05:26:56;;;;;;;9.20;4.40;;;;;;;2.91;86.27;100800.47;124981;1099;101976;-79
2023/12/15 05:29:27;;;;;;;10.07;4.87;;;;;;;2.94;85.71;100807.57;125603;1099;104110;-78
2023/12/15 05:31:59;;;;;;;9.50;4.53;;;;;;;2.93;85.94;100797.98;125436;1099;104251;-80
2023/12/15 05:34:30;;;;;;;10.53;5.03;;;;;;;2.92;85.64;100802.28;124964;1098;102546;-80
2023/12/15 05:37:02;;;;;;;9.77;4.90;;;;;;;2.92;85.21;100811.76;125464;1098;101861;-78
2023/12/15 05:39:33;;;;;;;9.47;4.53;;;;;;;2.91;85.00;100828.09;125172;1099;104166;-78
2023/12/15 05:42:05;;;;;;;10.13;4.90;;;;;;;2.89;85.74;100822.80;125026;1099;104235;-78
2023/12/15 05:44:40;;;;;;;12.07;5.40;;;;;;;2.88;85.85;100818.39;125481;1099;102116;-80
2023/12/15 05:47:12;;;;;;;10.10;4.50;;;;;;;2.88;85.41;100831.35;125516;1099;101827;-82
2023/12/15 05:49:44;;;;;;;9.67;4.50;;;;;;;2.87;85.12;100829.58;126211;1099;102207;-81
2023/12/15 05:52:15;;;;;;;9.80;4.70;;;;;;;2.87;85.25;100847.72;125430;1099;101942;-80
2023/12/15 05:54:47;;;;;;;10.37;5.10;;;;;;;2.85;85.53;100849.27;125398;1099;102738;-80
2023/12/15 05:57:19;;;;;;;8.23;4.13;;;;;;;2.83;85.04;100864.72;125593;1099;104185;-80
2023/12/15 05:59:50;;;;;;;14.10;5.00;;;;;;;2.83;85.20;100864.72;125114;1099;104076;-80
2023/12/15 06:02:24;;;;;;;11.60;4.95;;;;;;;2.81;85.44;100868.90;125104;1099;102830;-80
2023/12/15 06:04:55;;;;;;;11.10;4.90;;;;;;;2.83;85.44;100893.23;125107;1099;101846;-82
2023/12/15 06:07:27;;;;;;;12.40;5.40;;;;;;;2.84;85.98;100895.04;125170;1099;102084;-77
2023/12/15 06:09:59;;;;;;;10.13;4.43;;;;;;;2.86;85.56;100889.97;125201;1099;101996;-77
2023/12/15 06:12:30;;;;;;;12.97;5.10;;;;;;;2.87;85.50;100882.30;125010;1099;104312;-77
2023/12/15 06:15:02;;;;;;;9.90;5.17;;;;;;;2.90;86.14;100888.48;125345;1098;104166;-77
2023/12/15 06:17:35;;;;;;;10.67;5.50;;;;;;;2.82;86.13;100883.67;125197;1098;104613;-76
2023/12/15 06:20:12;;;;;;;8.27;4.77;;;;;;;2.95;85.90;100900.12;124637;1099;104238;-76
2023/12/15 06:22:44;;;;;;;11.63;5.20;;;;;;;2.97;85.88;100898.52;125171;1099;104214;-77
2023/12/15 06:25:16;;;;;;;10.43;4.90;;;;;;;2.97;85.49;100907.19;125018;1099;103014;-77
2023/12/15 06:27:48;;;;;;;14.40;5.70;;;;;;;2.99;85.85;100922.86;125171;1098;102217;-76
2023/12/15 06:30:22;;;;;;;13.97;5.17;;;;;;;3.00;85.71;100930.75;125102;1099;101950;-77
2023/12/15 06:32:55;;;;;;;11.90;5.07;;;;;;;3.00;86.11;100935.94;125066;1099;102483;-79
2023/12/15 06:35:27;;;;;;;9.53;5.40;;;;;;;3.02;86.13;100938.64;125563;1099;101982;-76
2023/12/15 06:38:02;;;;;;;11.70;5.17;;;;;;;3.04;86.50;100942.27;126105;1098;104227;-77
2023/12/15 06:40:40;;;;;;;12.27;5.70;;;;;;;3.04;86.04;100952.64;125053;1098;101926;-79
2023/12/15 06:43:49;;;;;;;10.30;5.00;;;;;;;3.04;85.96;100956.13;125511;1099;102109;-80
2023/12/15 06:46:21;;;;;;;13.13;4.97;;;;;;;3.07;85.86;100950.27;125439;1099;104258;-83
2023/12/15 06:48:53;;;;;;;12.23;5.30;;;;;;;3.07;85.84;100950.27;125920;1098;101921;-82
2023/12/15 06:51:29;;;;;;;9.57;4.77;;;;;;;3.07;86.01;100976.20;125581;1102;102156;-81
2023/12/15 06:54:09;;;;;;;10.38;5.05;;;;;;;3.04;85.51;100974.27;126871;1098;104251;-79
2023/12/15 06:56:43;;;;;;;13.27;5.00;;;;;;;3.06;85.86;100972.68;124503;1099;104217;-78
2023/12/15 06:59:15;;;;;;;10.37;5.07;;;;;;;3.07;85.50;100968.42;124526;1099;101967;-77
2023/12/15 07:01:47;;;;;;;10.97;5.10;;;;;;;3.10;85.47;100978.09;124915;1098;102108;-78
2023/12/15 07:04:18;;;;;;;12.63;5.40;;;;;;;3.14;85.95;100990.50;124780;1099;104175;-78
2023/12/15 07:06:51;;;;;;;9.50;4.83;;;;;;;3.14;85.94;101009.55;125423;1099;102264;-80
2023/12/15 07:09:25;;;;;;;12.03;5.70;;;;;;;3.16;85.96;101018.33;126331;1089;104191;-77
2023/12/15 07:11:57;;;;;;;12.10;5.33;;;;;;;3.19;85.85;101025.45;124552;1099;101836;-77
2023/12/15 07:14:33;;;;;;;11.43;5.23;;;;;;;3.22;85.86;101025.67;125682;1099;104329;-75
2023/12/15 07:17:05;;;;;;;12.20;5.40;;;;;;;3.23;85.03;101023.19;124673;1102;102025;-79
2023/12/15 07:19:36;;;;;;;11.77;5.20;;;;;;;3.22;85.32;101026.56;126069;1098;101874;-78
2023/12/15 07:22:14;;;;;;;12.10;4.90;;;;;;;3.21;85.88;101042.02;127201;1098;101836;-77
2023/12/15 07:24:59;;;;;;;10.93;4.70;;;;;;;3.21;84.91;101054.98;125820;1098;104217;-76
2023/12/15 07:27:31;;;;;;;8.43;4.20;;;;;;;3.21;84.75;101048.13;124489;1102;102101;-77
2023/12/15 07:30:02;;;;;;;13.43;4.80;;;;;;;3.21;84.86;101047.20;124486;1099;104182;-77
2023/12/15 07:32:34;;;;;;;11.50;5.30;;;;;;;3.18;85.31;101050.49;125170;1102;102043;-76
2023/12/15 07:35:07;;;;;;;14.20;5.67;;;;;;;3.17;85.47;101051.27;125877;1100;104175;-78
2023/12/15 07:37:55;;;;;;;15.23;5.57;;;;;;;3.21;85.51;101044.61;125028;1102;104189;-77
2023/12/15 07:40:27;;;;;;;12.67;5.07;;;;;;;3.28;85.06;101053.77;124564;1102;102038;-74
2023/12/15 07:43:36;;;;;;;10.60;4.77;;;;;;;3.28;85.05;101057.25;124857;1098;104227;-74
2023/12/15 07:46:19;;;;;;;10.97;5.00;;;;;;;3.30;84.60;101062.55;124212;1102;104291;-75
2023/12/15 07:48:51;;;;;;;10.57;5.07;;;;;;;3.28;84.08;101061.55;124237;1098;109459;-77
2023/12/15 07:51:23;;;;;;;10.60;4.73;;;;;;;3.30;84.42;101070.34;125430;1098;101820;-77
2023/12/15 07:54:01;;;;;;;12.20;5.27;;;;;;;3.34;85.00;101072.38;124391;1099;104270;-76
2023/12/15 07:56:40;;;;;;;10.70;4.70;;;;;;;3.39;84.51;101078.80;124217;1099;104335;-76
2023/12/15 08:03:03;;;;;;;10.80;4.40;;;;;;;3.40;84.04;101094.48;124248;1102;101868;-74
2023/12/15 08:05:38;;;;;;;10.07;4.53;;;;;;;3.41;84.65;101110.94;124426;1102;104235;-76
2023/12/15 08:08:10;;;;;;;8.83;4.40;;;;;;;3.44;83.93;101105.97;124228;1102;104166;-74
2023/12/15 08:10:55;;;;;;;12.83;5.10;;;;;;;3.50;84.99;101131.48;124291;1098;103370;-74
2023/12/15 08:13:27;;;;;;;10.70;4.93;;;;;;;3.50;83.97;101124.59;124303;1099;104204;-75
2023/12/15 08:16:00;;;;;;;;;;;;;;;3.50;83.47;101129.78;124484;1099;102048;-76
2023/12/15 08:18:32;;;;;;;9.23;4.50;;;;;;;3.47;83.84;101145.13;124388;1102;104182;-76
2023/12/15 08:21:03;;;;;;;12.27;5.20;;;;;;;3.45;84.38;101144.11;124348;1101;104302;-78
2023/12/15 08:23:36;;;;;;;12.80;5.37;;;;;;;3.42;84.01;101154.27;124472;1099;102063;-78
2023/12/15 08:26:08;;;;;;;11.93;5.10;;;;;;;3.38;84.29;101149.63;124568;1102;104223;-79
2023/12/15 08:28:42;;;;;;;10.87;5.27;;;;;;;3.36;84.16;101161.59;125243;1099;101880;-77
2023/12/15 08:31:14;;;;;;;12.10;5.13;;;;;;;3.31;83.76;101171.62;125871;1098;102022;-76
2023/12/15 08:33:46;;;;;;;11.40;4.97;;;;;;;3.30;84.38;101159.42;124642;1099;102002;-79
2023/12/15 08:36:20;;;;;;;14.77;6.30;;;;;;;3.31;84.14;101181.99;124780;1099;102045;-76
2023/12/15 08:38:54;;;;;;;12.53;5.60;;;;;;;3.29;84.91;101182.65;125737;1099;101848;-77
2023/12/15 08:41:26;;;;;;;13.00;5.33;;;;;;;3.27;84.22;101184.23;124266;1099;104248;-75
2023/12/15 08:44:02;;;;;;;14.07;6.00;;;;;;;3.28;84.47;101196.43;124342;1099;104169;-76
2023/12/15 08:46:41;;;;;;;13.70;5.50;;;;;;;3.28;84.65;101186.05;124252;1099;104354;-77
2023/12/15 08:49:12;;;;;;;11.53;5.40;;;;;;;3.31;84.60;101192.37;124217;1099;104275;-75
2023/12/15 08:51:50;;;;;;;12.77;5.33;;;;;;;3.37;84.06;101191.94;124235;1101;102042;-74
2023/12/15 08:54:22;;;;;;;19.67;6.63;;;;;;;3.39;83.75;101195.55;124515;1099;104194;-78
2023/12/15 08:56:54;;;;;;;;;;;;;;;3.42;83.35;101200.97;124422;1099;104214;-75
2023/12/15 08:59:26;;;;;;;12.17;5.17;;;;;;;3.46;82.56;101199.49;124210;1099;104303;-73
2023/12/15 09:01:58;;;;;;;11.03;4.97;;;;;;;3.41;81.70;101217.31;124557;1102;102233;-74
2023/12/15 09:04:29;;;;;;;8.53;4.60;;;;;;;3.38;81.37;101194.66;125281;1101;104230;-76
2023/12/15 09:07:01;;;;;;;9.33;4.70;;;;;;;3.39;82.37;101191.25;125725;1098;102003;-75
2023/12/15 09:09:34;;;;;;;8.70;4.10;;;;;;;3.39;81.36;101204.22;124545;1099;102773;-77
2023/12/15 09:12:08;;;;;;;9.75;4.03;;;;;;;3.39;80.79;101203.33;125476;1099;102028;-77
2023/12/15 09:14:39;;;;;;;9.65;4.58;;;;;;;3.40;81.40;101212.93;126409;1098;101921;-76
2023/12/15 09:17:13;;;;;;;9.20;4.20;;;;;;;3.37;79.87;101212.70;125145;1099;103658;-76
2023/12/15 09:19:47;;;;;;;7.53;4.00;;;;;;;3.38;81.49;101227.45;124546;1099;104207;-75
2023/12/15 09:22:19;;;;;;;11.83;4.70;;;;;;;3.39;81.16;101224.08;124213;1099;104303;-75
2023/12/15 09:24:53;;;;;;;11.77;5.00;;;;;;;3.39;81.19;101230.16;125691;1098;104254;-76
2023/12/15 09:27:31;;;;;;;10.17;4.60;;;;;;;3.39;81.87;101224.08;125738;1098;102468;-75
2023/12/15 09:30:04;;;;;;;13.57;4.90;;;;;;;3.37;81.80;101233.45;124474;1100;104079;-76
2023/12/15 09:32:36;;;;;;;12.57;5.60;;;;;;;3.35;82.18;101225.55;124463;1100;104220;-74
2023/12/15 09:35:10;;;;;;;12.53;5.60;;;;;;;3.35;82.22;101237.59;125969;1098;101823;-72
2023/12/15 09:37:44;;;;;;;13.07;5.83;;;;;;;3.32;81.30;101234.77;126043;1098;102329;-73
2023/12/15 09:40:21;;;;;;;17.77;7.13;;;;;;;3.35;82.02;101224.63;124383;1099;104165;-72
2023/12/15 09:42:53;;;;;;;23.47;9.00;;;;;;;3.39;82.40;101229.27;124232;1099;104310;-73
2023/12/15 09:45:28;;;;;;;19.70;7.62;;;;;;;3.45;82.19;101239.22;124208;1099;104227;-73
2023/12/15 09:48:04;;;;;;;21.87;8.20;;;;;;;3.49;82.20;101238.65;124281;1099;102650;-74
2023/12/15 09:50:41;;;;;;;20.03;8.47;;;;;;;3.50;81.88;101238.77;124503;1099;102334;-77
2023/12/15 09:53:13;;;;;;;16.73;7.53;;;;;;;3.51;81.89;101234.50;124822;1099;104172;-74
2023/12/15 09:55:45;;;;;;;12.87;5.67;;;;;;;3.52;82.09;101245.00;124348;1099;104189;-74
2023/12/15 09:58:19;;;;;;;13.17;5.73;;;;;;;3.52;81.52;101255.38;125453;1098;101806;-75
2023/12/15 10:00:52;;;;;;;11.10;5.10;;;;;;;3.51;82.25;101257.86;124345;1099;102019;-75
2023/12/15 10:03:24;;;;;;;12.50;5.23;;;;;;;3.43;81.84;101262.45;124360;1099;104277;-74
2023/12/15 10:05:56;;;;;;;11.83;5.77;;;;;;;3.36;81.18;101261.06;124247;1099;102099;-73
2023/12/15 10:08:39;;;;;;;9.77;5.00;;;;;;;3.33;81.14;101252.15;124205;1099;102042;-74
2023/12/15 10:11:14;;;;;;;10.93;5.30;;;;;;;3.30;81.62;101247.62;124197;1099;102138;-76
2023/12/15 10:13:49;;;;;;;12.67;5.43;;;;;;;3.28;81.87;101261.28;124403;1103;104287;-75
2023/12/15 10:16:22;;;;;;;14.13;5.40;;;;;;;3.28;81.13;101259.58;124247;1099;102008;-73
2023/12/15 10:18:55;;;;;;;13.57;5.30;;;;;;;3.28;81.11;101263.87;124134;1102;104159;-73
2023/12/15 10:21:30;;;;;;;12.53;5.30;;;;;;;3.28;81.12;101258.69;124224;1100;102086;-76
2023/12/15 10:24:18;;;;;;;9.30;4.53;;;;;;;3.27;80.96;101265.55;124279;1102;104357;-73
2023/12/15 10:26:50;;;;;;;12.23;5.07;;;;;;;3.28;81.28;101276.84;124975;1099;101942;-74
2023/12/15 10:29:23;;;;;;;10.63;4.93;;;;;;;3.30;81.02;101288.23;124544;1099;103766;-75
2023/12/15 10:31:57;;;;;;;10.80;5.60;;;;;;;3.34;80.61;101287.70;124233;1099;104182;-73
2023/12/15 10:34:29;;;;;;;10.20;5.03;;;;;;;3.38;80.97;101294.91;124274;1099;104172;-72
2023/12/15 10:37:01;;;;;;;9.00;4.63;;;;;;;3.36;80.92;101291.30;125366;1098;104179;-74
2023/12/15 10:39:33;;;;;;;11.87;5.10;;;;;;;3.36;81.64;101284.41;124223;1099;102258;-75
2023/12/15 10:42:07;;;;;;;10.07;5.10;;;;;;;3.39;81.73;101289.84;124388;1102;103440;-76
2023/12/15 10:44:40;;;;;;;11.00;5.08;;;;;;;3.40;81.26;101285.58;125426;1099;101942;-77
2023/12/15 10:47:13;;;;;;;9.50;4.90;;;;;;;3.42;80.81;101296.97;124419;1100;102121;-75
2023/12/15 10:49:46;;;;;;;7.43;4.50;;;;;;;3.42;81.04;101286.59;124395;1099;104313;-78
2023/12/15 10:52:21;;;;;;;8.87;3.87;;;;;;;3.43;81.32;101301.37;124299;1099;104317;-76
2023/12/15 10:55:03;;;;;;;7.60;4.37;;;;;;;3.41;80.90;101297.73;124510;1099;102049;-76
2023/12/15 10:57:38;;;;;;;9.17;4.30;;;;;;;3.39;80.97;101291.53;124268;1099;104213;-76
2023/12/15 11:00:18;;;;;;;13.37;5.17;;;;;;;3.41;80.79;101289.95;125927;1098;101801;-77
2023/12/15 11:02:55;;;;;;;11.73;5.20;;;;;;;3.44;80.86;101289.30;124500;1099;110069;-74
2023/12/15 11:05:27;;;;;;;9.30;4.90;;;;;;;3.42;80.17;101283.98;125155;1099;104198;-76
2023/12/15 11:08:14;;;;;;;11.30;4.90;;;;;;;3.36;80.61;101275.73;124378;1099;101947;-75
2023/12/15 11:10:47;;;;;;;10.43;4.93;;;;;;;3.49;80.56;101291.47;124271;1102;104465;-78
2023/12/15 11:14:01;;;;;;;10.97;4.80;;;;;;;3.50;80.20;101300.15;124351;1099;104207;-77
2023/12/15 11:16:39;;;;;;;13.30;5.60;;;;;;;3.49;80.84;101309.64;126337;1099;104079;-78
2023/12/15 11:19:20;;;;;;;10.37;5.17;;;;;;;3.57;81.07;101312.83;125168;1099;101791;-75
2023/12/15 11:21:57;;;;;;;11.37;5.20;;;;;;;3.59;80.55;101306.94;124393;1102;103880;-75
2023/12/15 11:24:30;;;;;;;8.43;4.37;;;;;;;3.62;80.30;101311.47;124316;1099;104239;-75
2023/12/15 11:27:02;;;;;;;11.43;4.72;;;;;;;3.64;81.11;101307.30;124495;1099;102491;-74
2023/12/15 11:29:38;;;;;;;11.03;5.30;;;;;;;3.66;80.38;101313.53;125372;1098;101974;-79
2023/12/15 11:32:33;;;;;;;12.53;5.90;;;;;;;3.65;80.99;101316.00;125027;1099;102046;-76
2023/12/15 11:35:06;;;;;;;19.90;7.22;;;;;;;3.66;81.12;101323.91;124779;1099;104175;-77
2023/12/15 11:37:45;;;;;;;25.40;9.40;;;;;;;3.71;80.92;101325.16;124362;1099;104802;-75
2023/12/15 11:40:22;;;;;;;21.80;8.30;;;;;;;3.75;81.38;101327.17;124956;1099;104232;-79
2023/12/15 11:42:54;;;;;;;16.05;6.15;;;;;;;3.81;80.76;101334.54;124609;1099;101957;-77
2023/12/15 11:45:30;;;;;;;11.40;5.40;;;;;;;3.82;79.67;101332.84;126192;1098;104233;-77
2023/12/15 11:48:14;;;;;;;8.60;4.30;;;;;;;3.82;80.68;101340.62;125490;1099;104259;-76
2023/12/15 11:50:47;;;;;;;10.47;4.80;;;;;;;3.81;80.36;101344.92;124345;1102;102018;-75